Terminal Aerodrome Forecast
Issued by NWS

Home | Current Version | Previous Version | Text Only | Print | Product List | Glossary On
Versions: 1 2 3 4 5 6 7 8 9 10 11 12 13 14 15 16 17 18 19 20 21 22 23 24 25
000
FTUS41 KGYX 031731
TAFLEB
TAF
KLEB 031731Z 0318/0418 19012KT P6SM SCT050
      TEMPO 0321/0401 5SM -TSRA BR OVC040CB
     FM040100 19006KT 6SM -SHRA BR BKN040
     FM040500 VRB03KT 2SM BR OVC002
     FM041200 VRB03KT P6SM SCT002=

USA.gov is the U.S. government's official web portal to all federal, state and local government web resources and services.